sensor_id;sensor_type;location;lat;lon;timestamp;temperature;humidity
70534;SHT31;58088;51.186;17.130;2023-03-03T00:01:43;3.19;74.41
70534;SHT31;58088;51.186;17.130;2023-03-03T00:04:09;3.17;74.49
70534;SHT31;58088;51.186;17.130;2023-03-03T00:06:35;3.16;74.52
70534;SHT31;58088;51.186;17.130;2023-03-03T00:09:01;3.14;74.51
70534;SHT31;58088;51.186;17.130;2023-03-03T00:11:27;3.14;74.53
70534;SHT31;58088;51.186;17.130;2023-03-03T00:13:54;3.12;74.56
70534;SHT31;58088;51.186;17.130;2023-03-03T00:18:57;3.04;74.58
70534;SHT31;58088;51.186;17.130;2023-03-03T00:21:25;3.05;74.72
70534;SHT31;58088;51.186;17.130;2023-03-03T00:26:55;3.00;74.60
70534;SHT31;58088;51.186;17.130;2023-03-03T00:29:30;2.94;74.53
70534;SHT31;58088;51.186;17.130;2023-03-03T00:32:16;2.90;74.58
70534;SHT31;58088;51.186;17.130;2023-03-03T00:34:48;2.89;74.54
70534;SHT31;58088;51.186;17.130;2023-03-03T00:40:10;2.82;74.50
70534;SHT31;58088;51.186;17.130;2023-03-03T00:42:54;2.80;74.52
70534;SHT31;58088;51.186;17.130;2023-03-03T00:45:33;2.83;74.67
70534;SHT31;58088;51.186;17.130;2023-03-03T00:48:29;2.85;74.68
70534;SHT31;58088;51.186;17.130;2023-03-03T00:53:59;2.89;74.70
70534;SHT31;58088;51.186;17.130;2023-03-03T00:56:26;2.89;74.70
70534;SHT31;58088;51.186;17.130;2023-03-03T00:58:53;2.93;74.71
70534;SHT31;58088;51.186;17.130;2023-03-03T01:01:20;2.95;74.74
70534;SHT31;58088;51.186;17.130;2023-03-03T01:03:50;2.98;74.77
70534;SHT31;58088;51.186;17.130;2023-03-03T01:06:16;2.98;74.71
70534;SHT31;58088;51.186;17.130;2023-03-03T01:08:42;3.02;74.77
70534;SHT31;58088;51.186;17.130;2023-03-03T01:11:12;3.04;74.80
70534;SHT31;58088;51.186;17.130;2023-03-03T01:13:47;3.05;74.94
70534;SHT31;58088;51.186;17.130;2023-03-03T01:16:16;3.11;74.90
70534;SHT31;58088;51.186;17.130;2023-03-03T01:18:42;3.14;74.90
70534;SHT31;58088;51.186;17.130;2023-03-03T01:21:10;3.16;74.85
70534;SHT31;58088;51.186;17.130;2023-03-03T01:23:38;3.16;74.81
70534;SHT31;58088;51.186;17.130;2023-03-03T01:26:04;3.14;74.64
70534;SHT31;58088;51.186;17.130;2023-03-03T01:28:31;3.13;74.62
70534;SHT31;58088;51.186;17.130;2023-03-03T01:30:59;3.13;74.60
70534;SHT31;58088;51.186;17.130;2023-03-03T01:33:28;3.13;74.60
70534;SHT31;58088;51.186;17.130;2023-03-03T01:35:56;3.13;74.60
70534;SHT31;58088;51.186;17.130;2023-03-03T01:38:23;3.16;74.60
70534;SHT31;58088;51.186;17.130;2023-03-03T01:40:58;3.14;74.58
70534;SHT31;58088;51.186;17.130;2023-03-03T01:43:26;3.13;74.50
70534;SHT31;58088;51.186;17.130;2023-03-03T01:48:22;3.13;74.65
70534;SHT31;58088;51.186;17.130;2023-03-03T01:51:03;3.13;74.68
70534;SHT31;58088;51.186;17.130;2023-03-03T01:53:44;3.14;74.72
70534;SHT31;58088;51.186;17.130;2023-03-03T01:56:15;3.15;74.78
70534;SHT31;58088;51.186;17.130;2023-03-03T01:58:44;3.18;74.86
70534;SHT31;58088;51.186;17.130;2023-03-03T02:04:58;3.16;74.74
70534;SHT31;58088;51.186;17.130;2023-03-03T02:07:24;3.14;74.74
70534;SHT31;58088;51.186;17.130;2023-03-03T02:12:29;3.07;74.72
70534;SHT31;58088;51.186;17.130;2023-03-03T02:15:27;3.11;74.87
70534;SHT31;58088;51.186;17.130;2023-03-03T02:17:58;3.15;74.82
70534;SHT31;58088;51.186;17.130;2023-03-03T02:23:23;3.06;74.50
70534;SHT31;58088;51.186;17.130;2023-03-03T02:28:41;2.93;74.76
70534;SHT31;58088;51.186;17.130;2023-03-03T02:31:09;2.91;74.86
70534;SHT31;58088;51.186;17.130;2023-03-03T02:33:40;2.92;75.03
70534;SHT31;58088;51.186;17.130;2023-03-03T02:36:14;2.92;75.19
70534;SHT31;58088;51.186;17.130;2023-03-03T02:41:28;2.99;75.18
70534;SHT31;58088;51.186;17.130;2023-03-03T02:44:05;3.01;75.15
70534;SHT31;58088;51.186;17.130;2023-03-03T02:46:43;3.03;75.21
70534;SHT31;58088;51.186;17.130;2023-03-03T02:49:13;3.03;75.20
70534;SHT31;58088;51.186;17.130;2023-03-03T02:51:43;3.03;75.23
70534;SHT31;58088;51.186;17.130;2023-03-03T02:54:10;3.02;75.18
70534;SHT31;58088;51.186;17.130;2023-03-03T02:56:40;3.01;75.18
70534;SHT31;58088;51.186;17.130;2023-03-03T02:59:07;2.94;75.14
70534;SHT31;58088;51.186;17.130;2023-03-03T03:01:37;2.91;75.17
70534;SHT31;58088;51.186;17.130;2023-03-03T03:04:10;2.89;75.33
70534;SHT31;58088;51.186;17.130;2023-03-03T03:06:45;2.89;75.22
70534;SHT31;58088;51.186;17.130;2023-03-03T03:09:13;2.90;75.23
70534;SHT31;58088;51.186;17.130;2023-03-03T03:11:41;2.90;75.21
70534;SHT31;58088;51.186;17.130;2023-03-03T03:14:09;2.90;75.20
70534;SHT31;58088;51.186;17.130;2023-03-03T03:16:37;2.90;75.22
70534;SHT31;58088;51.186;17.130;2023-03-03T03:19:08;2.89;75.14
70534;SHT31;58088;51.186;17.130;2023-03-03T03:21:35;2.87;75.10
70534;SHT31;58088;51.186;17.130;2023-03-03T03:24:02;2.88;75.10
70534;SHT31;58088;51.186;17.130;2023-03-03T03:26:28;2.89;75.13
70534;SHT31;58088;51.186;17.130;2023-03-03T03:28:55;2.90;75.15
70534;SHT31;58088;51.186;17.130;2023-03-03T03:31:21;2.89;75.05
70534;SHT31;58088;51.186;17.130;2023-03-03T03:33:48;2.85;75.01
70534;SHT31;58088;51.186;17.130;2023-03-03T03:36:15;2.82;75.06
70534;SHT31;58088;51.186;17.130;2023-03-03T03:38:41;2.80;75.21
70534;SHT31;58088;51.186;17.130;2023-03-03T03:41:08;2.82;75.33
70534;SHT31;58088;51.186;17.130;2023-03-03T03:43:37;2.84;75.21
70534;SHT31;58088;51.186;17.130;2023-03-03T03:46:03;2.83;75.18
70534;SHT31;58088;51.186;17.130;2023-03-03T03:48:30;2.84;75.20
70534;SHT31;58088;51.186;17.130;2023-03-03T03:50:57;2.86;75.14
70534;SHT31;58088;51.186;17.130;2023-03-03T03:53:25;2.83;75.13
70534;SHT31;58088;51.186;17.130;2023-03-03T03:55:51;2.80;75.04
70534;SHT31;58088;51.186;17.130;2023-03-03T03:58:18;2.75;75.06
70534;SHT31;58088;51.186;17.130;2023-03-03T04:00:49;2.72;75.04
70534;SHT31;58088;51.186;17.130;2023-03-03T04:03:16;2.65;74.95
70534;SHT31;58088;51.186;17.130;2023-03-03T04:05:43;2.58;74.94
70534;SHT31;58088;51.186;17.130;2023-03-03T04:08:10;2.58;75.06
70534;SHT31;58088;51.186;17.130;2023-03-03T04:10:37;2.59;75.14
70534;SHT31;58088;51.186;17.130;2023-03-03T04:13:04;2.57;74.96
70534;SHT31;58088;51.186;17.130;2023-03-03T04:15:31;2.55;75.05
70534;SHT31;58088;51.186;17.130;2023-03-03T04:17:58;2.56;75.05
70534;SHT31;58088;51.186;17.130;2023-03-03T04:20:25;2.50;75.03
70534;SHT31;58088;51.186;17.130;2023-03-03T04:22:52;2.46;75.06
70534;SHT31;58088;51.186;17.130;2023-03-03T04:25:19;2.41;75.21
70534;SHT31;58088;51.186;17.130;2023-03-03T04:27:45;2.44;75.42
70534;SHT31;58088;51.186;17.130;2023-03-03T04:30:13;2.50;75.47
70534;SHT31;58088;51.186;17.130;2023-03-03T04:32:42;2.54;75.48
70534;SHT31;58088;51.186;17.130;2023-03-03T04:35:10;2.55;75.41
70534;SHT31;58088;51.186;17.130;2023-03-03T04:37:39;2.53;75.38
70534;SHT31;58088;51.186;17.130;2023-03-03T04:40:06;2.52;75.45
70534;SHT31;58088;51.186;17.130;2023-03-03T04:42:36;2.49;75.47
70534;SHT31;58088;51.186;17.130;2023-03-03T04:45:03;2.41;75.41
70534;SHT31;58088;51.186;17.130;2023-03-03T04:47:31;2.37;75.45
70534;SHT31;58088;51.186;17.130;2023-03-03T04:49:58;2.33;75.46
70534;SHT31;58088;51.186;17.130;2023-03-03T04:52:27;2.30;75.55
70534;SHT31;58088;51.186;17.130;2023-03-03T04:54:54;2.29;75.52
70534;SHT31;58088;51.186;17.130;2023-03-03T04:57:21;2.28;75.43
70534;SHT31;58088;51.186;17.130;2023-03-03T04:59:47;2.26;75.43
70534;SHT31;58088;51.186;17.130;2023-03-03T05:02:13;2.25;75.42
70534;SHT31;58088;51.186;17.130;2023-03-03T05:04:40;2.20;75.42
70534;SHT31;58088;51.186;17.130;2023-03-03T05:07:06;2.18;75.50
70534;SHT31;58088;51.186;17.130;2023-03-03T05:09:32;2.17;75.50
70534;SHT31;58088;51.186;17.130;2023-03-03T05:11:59;2.20;75.58
70534;SHT31;58088;51.186;17.130;2023-03-03T05:14:26;2.21;75.54
70534;SHT31;58088;51.186;17.130;2023-03-03T05:16:53;2.23;75.55
70534;SHT31;58088;51.186;17.130;2023-03-03T05:19:20;2.27;75.60
70534;SHT31;58088;51.186;17.130;2023-03-03T05:21:46;2.28;75.60
70534;SHT31;58088;51.186;17.130;2023-03-03T05:24:12;2.29;75.64
70534;SHT31;58088;51.186;17.130;2023-03-03T05:26:39;2.32;75.67
70534;SHT31;58088;51.186;17.130;2023-03-03T05:29:06;2.36;75.71
70534;SHT31;58088;51.186;17.130;2023-03-03T05:31:33;2.37;75.67
70534;SHT31;58088;51.186;17.130;2023-03-03T05:34:00;2.38;75.73
70534;SHT31;58088;51.186;17.130;2023-03-03T05:36:27;2.43;75.80
70534;SHT31;58088;51.186;17.130;2023-03-03T05:38:53;2.49;75.73
70534;SHT31;58088;51.186;17.130;2023-03-03T05:41:19;2.50;75.62
70534;SHT31;58088;51.186;17.130;2023-03-03T05:43:45;2.48;75.60
70534;SHT31;58088;51.186;17.130;2023-03-03T05:46:12;2.46;75.69
70534;SHT31;58088;51.186;17.130;2023-03-03T05:48:38;2.46;75.76
70534;SHT31;58088;51.186;17.130;2023-03-03T05:51:04;2.48;75.77
70534;SHT31;58088;51.186;17.130;2023-03-03T05:53:31;2.47;75.69
70534;SHT31;58088;51.186;17.130;2023-03-03T05:55:57;2.46;75.73
70534;SHT31;58088;51.186;17.130;2023-03-03T05:58:23;2.50;75.79
70534;SHT31;58088;51.186;17.130;2023-03-03T06:00:49;2.52;75.68
70534;SHT31;58088;51.186;17.130;2023-03-03T06:03:15;2.48;75.51
70534;SHT31;58088;51.186;17.130;2023-03-03T06:05:42;2.41;75.49
70534;SHT31;58088;51.186;17.130;2023-03-03T06:08:09;2.33;75.46
70534;SHT31;58088;51.186;17.130;2023-03-03T06:10:35;2.31;75.54
70534;SHT31;58088;51.186;17.130;2023-03-03T06:13:02;2.31;75.50
70534;SHT31;58088;51.186;17.130;2023-03-03T06:15:28;2.31;75.50
70534;SHT31;58088;51.186;17.130;2023-03-03T06:17:54;2.34;75.49
70534;SHT31;58088;51.186;17.130;2023-03-03T06:20:21;2.36;75.44
70534;SHT31;58088;51.186;17.130;2023-03-03T06:22:47;2.36;75.39
70534;SHT31;58088;51.186;17.130;2023-03-03T06:25:13;2.38;75.45
70534;SHT31;58088;51.186;17.130;2023-03-03T06:27:39;2.37;75.51
70534;SHT31;58088;51.186;17.130;2023-03-03T06:30:06;2.37;75.49
70534;SHT31;58088;51.186;17.130;2023-03-03T06:32:33;2.36;75.59
70534;SHT31;58088;51.186;17.130;2023-03-03T06:34:59;2.40;75.60
70534;SHT31;58088;51.186;17.130;2023-03-03T06:37:25;2.43;75.52
70534;SHT31;58088;51.186;17.130;2023-03-03T06:39:52;2.38;75.37
70534;SHT31;58088;51.186;17.130;2023-03-03T06:42:18;2.29;75.26
70534;SHT31;58088;51.186;17.130;2023-03-03T06:44:45;2.27;75.33
70534;SHT31;58088;51.186;17.130;2023-03-03T06:47:12;2.32;75.38
70534;SHT31;58088;51.186;17.130;2023-03-03T06:49:38;2.35;75.29
70534;SHT31;58088;51.186;17.130;2023-03-03T06:52:10;2.36;75.30
70534;SHT31;58088;51.186;17.130;2023-03-03T06:54:48;2.38;75.21
70534;SHT31;58088;51.186;17.130;2023-03-03T06:57:25;2.40;75.17
70534;SHT31;58088;51.186;17.130;2023-03-03T06:59:56;2.38;75.11
70534;SHT31;58088;51.186;17.130;2023-03-03T07:02:41;2.40;75.13
70534;SHT31;58088;51.186;17.130;2023-03-03T07:05:15;2.41;75.10
70534;SHT31;58088;51.186;17.130;2023-03-03T07:07:43;2.43;75.06
70534;SHT31;58088;51.186;17.130;2023-03-03T07:10:21;2.45;75.00
70534;SHT31;58088;51.186;17.130;2023-03-03T07:12:55;2.47;74.91
70534;SHT31;58088;51.186;17.130;2023-03-03T07:15:41;2.41;74.62
70534;SHT31;58088;51.186;17.130;2023-03-03T07:18:19;2.39;74.65
70534;SHT31;58088;51.186;17.130;2023-03-03T07:21:16;2.40;74.69
70534;SHT31;58088;51.186;17.130;2023-03-03T07:24:00;2.45;74.70
70534;SHT31;58088;51.186;17.130;2023-03-03T07:26:59;2.46;74.58
70534;SHT31;58088;51.186;17.130;2023-03-03T07:29:53;2.50;74.50
70534;SHT31;58088;51.186;17.130;2023-03-03T07:32:45;2.57;74.44
70534;SHT31;58088;51.186;17.130;2023-03-03T07:40:50;2.63;74.18
70534;SHT31;58088;51.186;17.130;2023-03-03T07:43:39;2.61;74.24
70534;SHT31;58088;51.186;17.130;2023-03-03T07:46:25;2.55;74.20
70534;SHT31;58088;51.186;17.130;2023-03-03T07:49:21;2.48;74.14
70534;SHT31;58088;51.186;17.130;2023-03-03T07:57:52;2.49;74.01
70534;SHT31;58088;51.186;17.130;2023-03-03T08:08:09;2.49;74.40
70534;SHT31;58088;51.186;17.130;2023-03-03T08:11:01;2.43;74.29
70534;SHT31;58088;51.186;17.130;2023-03-03T08:16:01;2.38;74.41
70534;SHT31;58088;51.186;17.130;2023-03-03T08:18:51;2.34;74.48
70534;SHT31;58088;51.186;17.130;2023-03-03T08:23:50;2.30;74.62
70534;SHT31;58088;51.186;17.130;2023-03-03T08:26:21;2.37;74.68
70534;SHT31;58088;51.186;17.130;2023-03-03T08:28:49;2.35;74.66
70534;SHT31;58088;51.186;17.130;2023-03-03T08:31:16;2.34;74.75
70534;SHT31;58088;51.186;17.130;2023-03-03T08:33:43;2.36;74.77
70534;SHT31;58088;51.186;17.130;2023-03-03T08:36:10;2.36;74.72
70534;SHT31;58088;51.186;17.130;2023-03-03T08:38:37;2.33;74.70
70534;SHT31;58088;51.186;17.130;2023-03-03T08:41:05;2.31;74.76
70534;SHT31;58088;51.186;17.130;2023-03-03T08:43:31;2.36;74.86
70534;SHT31;58088;51.186;17.130;2023-03-03T08:45:58;2.37;74.72
70534;SHT31;58088;51.186;17.130;2023-03-03T08:48:28;2.40;74.71
70534;SHT31;58088;51.186;17.130;2023-03-03T08:50:54;2.49;74.63
70534;SHT31;58088;51.186;17.130;2023-03-03T08:53:21;2.60;74.58
70534;SHT31;58088;51.186;17.130;2023-03-03T08:55:48;2.70;74.48
70534;SHT31;58088;51.186;17.130;2023-03-03T08:58:16;2.73;74.25
70534;SHT31;58088;51.186;17.130;2023-03-03T09:00:45;2.71;74.18
70534;SHT31;58088;51.186;17.130;2023-03-03T09:03:11;2.73;74.27
70534;SHT31;58088;51.186;17.130;2023-03-03T09:05:38;2.80;74.27
70534;SHT31;58088;51.186;17.130;2023-03-03T09:08:05;2.88;74.14
70534;SHT31;58088;51.186;17.130;2023-03-03T09:10:33;2.87;73.97
70534;SHT31;58088;51.186;17.130;2023-03-03T09:13:07;2.88;74.00
70534;SHT31;58088;51.186;17.130;2023-03-03T09:15:41;2.96;73.89
70534;SHT31;58088;51.186;17.130;2023-03-03T09:18:18;3.02;73.78
70534;SHT31;58088;51.186;17.130;2023-03-03T09:21:00;3.07;73.65
70534;SHT31;58088;51.186;17.130;2023-03-03T09:29:10;3.06;73.40
70534;SHT31;58088;51.186;17.130;2023-03-03T09:31:55;3.03;73.40
70534;SHT31;58088;51.186;17.130;2023-03-03T09:37:23;3.09;73.46
70534;SHT31;58088;51.186;17.130;2023-03-03T09:39:57;3.17;73.35
70534;SHT31;58088;51.186;17.130;2023-03-03T09:45:33;3.04;73.30
70534;SHT31;58088;51.186;17.130;2023-03-03T09:56:46;2.94;73.64
70534;SHT31;58088;51.186;17.130;2023-03-03T10:20:04;3.08;73.68
70534;SHT31;58088;51.186;17.130;2023-03-03T10:25:39;3.01;73.73
70534;SHT31;58088;51.186;17.130;2023-03-03T10:28:49;2.97;73.79
70534;SHT31;58088;51.186;17.130;2023-03-03T10:31:37;2.92;73.82
70534;SHT31;58088;51.186;17.130;2023-03-03T10:34:53;2.96;73.95
70534;SHT31;58088;51.186;17.130;2023-03-03T10:46:31;3.21;73.75
70534;SHT31;58088;51.186;17.130;2023-03-03T10:55:56;3.45;73.24
70534;SHT31;58088;51.186;17.130;2023-03-03T11:05:12;3.57;72.77
70534;SHT31;58088;51.186;17.130;2023-03-03T11:17:04;3.67;72.46
70534;SHT31;58088;51.186;17.130;2023-03-03T11:19:54;3.58;72.57
70534;SHT31;58088;51.186;17.130;2023-03-03T11:22:33;3.54;72.71
70534;SHT31;58088;51.186;17.130;2023-03-03T11:25:14;3.59;72.71
70534;SHT31;58088;51.186;17.130;2023-03-03T11:37:06;3.63;72.62
70534;SHT31;58088;51.186;17.130;2023-03-03T11:39:56;3.63;72.60
70534;SHT31;58088;51.186;17.130;2023-03-03T11:42:52;3.72;72.55
70534;SHT31;58088;51.186;17.130;2023-03-03T11:48:17;3.82;72.11
70534;SHT31;58088;51.186;17.130;2023-03-03T11:51:00;3.75;72.08
70534;SHT31;58088;51.186;17.130;2023-03-03T11:54:00;3.71;72.07
70534;SHT31;58088;51.186;17.130;2023-03-03T11:56:34;3.63;72.00
70534;SHT31;58088;51.186;17.130;2023-03-03T12:01:55;3.60;72.00
70534;SHT31;58088;51.186;17.130;2023-03-03T12:07:51;3.58;72.10
70534;SHT31;58088;51.186;17.130;2023-03-03T12:10:45;3.62;72.04
70534;SHT31;58088;51.186;17.130;2023-03-03T12:25:29;3.81;71.89
70534;SHT31;58088;51.186;17.130;2023-03-03T12:31:13;3.71;71.80
70534;SHT31;58088;51.186;17.130;2023-03-03T12:33:58;3.66;71.80
70534;SHT31;58088;51.186;17.130;2023-03-03T12:36:57;3.65;71.94
70534;SHT31;58088;51.186;17.130;2023-03-03T12:39:48;3.75;71.99
70534;SHT31;58088;51.186;17.130;2023-03-03T12:42:25;3.82;71.87
70534;SHT31;58088;51.186;17.130;2023-03-03T12:48:08;3.77;71.67
70534;SHT31;58088;51.186;17.130;2023-03-03T12:54:24;3.74;71.50
70534;SHT31;58088;51.186;17.130;2023-03-03T13:00:41;3.93;71.52
70534;SHT31;58088;51.186;17.130;2023-03-03T13:06:30;4.03;71.32
70534;SHT31;58088;51.186;17.130;2023-03-03T13:12:50;4.02;71.06
70534;SHT31;58088;51.186;17.130;2023-03-03T13:15:34;3.94;70.91
70534;SHT31;58088;51.186;17.130;2023-03-03T13:18:23;3.94;70.91
70534;SHT31;58088;51.186;17.130;2023-03-03T13:21:15;3.98;70.96
70534;SHT31;58088;51.186;17.130;2023-03-03T13:26:36;4.03;70.85
70534;SHT31;58088;51.186;17.130;2023-03-03T13:29:39;4.08;70.77
70534;SHT31;58088;51.186;17.130;2023-03-03T13:32:16;4.10;70.62
70534;SHT31;58088;51.186;17.130;2023-03-03T13:37:51;4.11;70.70
70534;SHT31;58088;51.186;17.130;2023-03-03T13:40:23;4.05;70.68
70534;SHT31;58088;51.186;17.130;2023-03-03T13:43:11;4.01;70.76
70534;SHT31;58088;51.186;17.130;2023-03-03T14:06:20;4.31;70.41
70534;SHT31;58088;51.186;17.130;2023-03-03T14:08:59;4.26;70.40
70534;SHT31;58088;51.186;17.130;2023-03-03T14:20:27;4.12;70.41
70534;SHT31;58088;51.186;17.130;2023-03-03T14:28:29;4.06;70.41
70534;SHT31;58088;51.186;17.130;2023-03-03T14:31:21;4.02;70.46
70534;SHT31;58088;51.186;17.130;2023-03-03T14:34:01;3.97;70.50
70534;SHT31;58088;51.186;17.130;2023-03-03T14:36:43;3.93;70.42
70534;SHT31;58088;51.186;17.130;2023-03-03T14:42:06;3.95;70.40
70534;SHT31;58088;51.186;17.130;2023-03-03T14:47:24;4.16;70.36
70534;SHT31;58088;51.186;17.130;2023-03-03T14:49:53;4.19;70.16
70534;SHT31;58088;51.186;17.130;2023-03-03T14:52:26;4.17;70.16
70534;SHT31;58088;51.186;17.130;2023-03-03T14:55:00;4.08;70.18
70534;SHT31;58088;51.186;17.130;2023-03-03T14:57:47;4.00;70.29
70534;SHT31;58088;51.186;17.130;2023-03-03T15:07:54;3.99;70.30
70534;SHT31;58088;51.186;17.130;2023-03-03T15:10:26;3.96;70.21
70534;SHT31;58088;51.186;17.130;2023-03-03T15:12:58;3.92;70.20
70534;SHT31;58088;51.186;17.130;2023-03-03T15:18:35;3.91;70.20
70534;SHT31;58088;51.186;17.130;2023-03-03T15:21:31;3.88;70.19
70534;SHT31;58088;51.186;17.130;2023-03-03T15:27:48;3.85;70.25
70534;SHT31;58088;51.186;17.130;2023-03-03T15:39:40;3.87;70.30
70534;SHT31;58088;51.186;17.130;2023-03-03T15:45:26;3.83;70.32
70534;SHT31;58088;51.186;17.130;2023-03-03T15:56:34;3.85;70.42
70534;SHT31;58088;51.186;17.130;2023-03-03T16:02:02;3.80;70.62
70534;SHT31;58088;51.186;17.130;2023-03-03T16:05:02;3.80;70.62
70534;SHT31;58088;51.186;17.130;2023-03-03T16:07:54;3.75;70.68
70534;SHT31;58088;51.186;17.130;2023-03-03T16:13:42;3.61;70.84
70534;SHT31;58088;51.186;17.130;2023-03-03T16:19:34;3.57;71.00
70534;SHT31;58088;51.186;17.130;2023-03-03T16:28:56;3.49;71.07
70534;SHT31;58088;51.186;17.130;2023-03-03T16:31:46;3.49;71.18
70534;SHT31;58088;51.186;17.130;2023-03-03T16:42:39;3.49;71.22
70534;SHT31;58088;51.186;17.130;2023-03-03T16:45:22;3.46;71.27
70534;SHT31;58088;51.186;17.130;2023-03-03T16:51:06;3.42;71.58
70534;SHT31;58088;51.186;17.130;2023-03-03T16:53:44;3.38;71.59
70534;SHT31;58088;51.186;17.130;2023-03-03T16:56:22;3.34;71.72
70534;SHT31;58088;51.186;17.130;2023-03-03T16:58:57;3.33;71.84
70534;SHT31;58088;51.186;17.130;2023-03-03T17:04:48;3.37;71.89
70534;SHT31;58088;51.186;17.130;2023-03-03T17:20:02;3.32;71.82
70534;SHT31;58088;51.186;17.130;2023-03-03T17:22:46;3.29;71.89
70534;SHT31;58088;51.186;17.130;2023-03-03T17:25:53;3.29;71.96
70534;SHT31;58088;51.186;17.130;2023-03-03T17:34:43;3.18;72.08
70534;SHT31;58088;51.186;17.130;2023-03-03T17:40:37;3.24;72.34
70534;SHT31;58088;51.186;17.130;2023-03-03T17:43:34;3.31;72.11
70534;SHT31;58088;51.186;17.130;2023-03-03T17:49:03;3.26;72.06
70534;SHT31;58088;51.186;17.130;2023-03-03T17:55:03;3.24;72.16
70534;SHT31;58088;51.186;17.130;2023-03-03T17:57:55;3.21;72.14
70534;SHT31;58088;51.186;17.130;2023-03-03T18:07:20;3.02;72.29
70534;SHT31;58088;51.186;17.130;2023-03-03T18:10:34;2.99;72.39
70534;SHT31;58088;51.186;17.130;2023-03-03T18:13:17;2.92;72.47
70534;SHT31;58088;51.186;17.130;2023-03-03T18:19:09;2.87;72.86
70534;SHT31;58088;51.186;17.130;2023-03-03T18:22:16;2.89;72.94
70534;SHT31;58088;51.186;17.130;2023-03-03T18:24:54;2.91;72.92
70534;SHT31;58088;51.186;17.130;2023-03-03T18:27:28;2.90;72.97
70534;SHT31;58088;51.186;17.130;2023-03-03T18:32:40;2.89;73.06
70534;SHT31;58088;51.186;17.130;2023-03-03T18:40:51;2.86;73.21
70534;SHT31;58088;51.186;17.130;2023-03-03T18:43:40;2.87;73.28
70534;SHT31;58088;51.186;17.130;2023-03-03T18:49:02;2.91;73.19
70534;SHT31;58088;51.186;17.130;2023-03-03T18:54:00;2.97;73.11
70534;SHT31;58088;51.186;17.130;2023-03-03T19:02:10;3.05;72.95
70534;SHT31;58088;51.186;17.130;2023-03-03T19:13:58;3.03;72.89
70534;SHT31;58088;51.186;17.130;2023-03-03T19:16:01;3.00;73.00
70534;SHT31;58088;51.186;17.130;2023-03-03T19:23:57;2.98;73.22
70534;SHT31;58088;51.186;17.130;2023-03-03T19:29:20;2.96;73.31
70534;SHT31;58088;51.186;17.130;2023-03-03T19:35:19;3.03;73.32
70534;SHT31;58088;51.186;17.130;2023-03-03T19:46:54;3.06;73.32
70534;SHT31;58088;51.186;17.130;2023-03-03T20:09:41;2.90;73.79
70534;SHT31;58088;51.186;17.130;2023-03-03T20:24:47;2.87;74.02
70534;SHT31;58088;51.186;17.130;2023-03-03T20:40:30;2.81;74.10
70534;SHT31;58088;51.186;17.130;2023-03-03T20:52:16;2.77;74.27
70534;SHT31;58088;51.186;17.130;2023-03-03T20:58:10;2.70;74.25
70534;SHT31;58088;51.186;17.130;2023-03-03T21:01:12;2.64;74.36
70534;SHT31;58088;51.186;17.130;2023-03-03T21:04:15;2.60;74.40
70534;SHT31;58088;51.186;17.130;2023-03-03T21:07:04;2.54;74.53
70534;SHT31;58088;51.186;17.130;2023-03-03T21:09:35;2.48;74.68
70534;SHT31;58088;51.186;17.130;2023-03-03T21:12:25;2.45;74.80
70534;SHT31;58088;51.186;17.130;2023-03-03T21:15:00;2.44;74.83
70534;SHT31;58088;51.186;17.130;2023-03-03T21:17:34;2.40;74.97
70534;SHT31;58088;51.186;17.130;2023-03-03T21:20:22;2.40;75.08
70534;SHT31;58088;51.186;17.130;2023-03-03T21:22:55;2.44;75.04
70534;SHT31;58088;51.186;17.130;2023-03-03T21:33:49;2.52;74.94
70534;SHT31;58088;51.186;17.130;2023-03-03T21:38:57;2.51;74.93
70534;SHT31;58088;51.186;17.130;2023-03-03T21:41:26;2.52;74.96
70534;SHT31;58088;51.186;17.130;2023-03-03T21:44:30;2.51;74.99
70534;SHT31;58088;51.186;17.130;2023-03-03T21:47:02;2.45;75.04
70534;SHT31;58088;51.186;17.130;2023-03-03T21:49:32;2.40;75.24
70534;SHT31;58088;51.186;17.130;2023-03-03T21:51:59;2.41;75.38
70534;SHT31;58088;51.186;17.130;2023-03-03T21:54:26;2.40;75.39
70534;SHT31;58088;51.186;17.130;2023-03-03T21:56:53;2.38;75.47
70534;SHT31;58088;51.186;17.130;2023-03-03T21:59:19;2.35;75.58
70534;SHT31;58088;51.186;17.130;2023-03-03T22:01:45;2.36;75.71
70534;SHT31;58088;51.186;17.130;2023-03-03T22:04:12;2.38;75.72
70534;SHT31;58088;51.186;17.130;2023-03-03T22:06:39;2.37;75.77
70534;SHT31;58088;51.186;17.130;2023-03-03T22:09:06;2.36;75.94
70534;SHT31;58088;51.186;17.130;2023-03-03T22:11:33;2.38;75.90
70534;SHT31;58088;51.186;17.130;2023-03-03T22:13:59;2.41;75.90
70534;SHT31;58088;51.186;17.130;2023-03-03T22:16:26;2.43;75.88
70534;SHT31;58088;51.186;17.130;2023-03-03T22:18:52;2.43;75.92
70534;SHT31;58088;51.186;17.130;2023-03-03T22:21:18;2.43;75.94
70534;SHT31;58088;51.186;17.130;2023-03-03T22:23:45;2.47;76.00
70534;SHT31;58088;51.186;17.130;2023-03-03T22:26:13;2.52;75.91
70534;SHT31;58088;51.186;17.130;2023-03-03T22:28:39;2.54;75.87
70534;SHT31;58088;51.186;17.130;2023-03-03T22:31:05;2.53;75.88
70534;SHT31;58088;51.186;17.130;2023-03-03T22:33:32;2.53;75.88
70534;SHT31;58088;51.186;17.130;2023-03-03T22:35:59;2.53;75.90
70534;SHT31;58088;51.186;17.130;2023-03-03T22:38:25;2.53;75.96
70534;SHT31;58088;51.186;17.130;2023-03-03T22:40:52;2.55;75.99
70534;SHT31;58088;51.186;17.130;2023-03-03T22:43:20;2.54;76.06
70534;SHT31;58088;51.186;17.130;2023-03-03T22:45:47;2.50;76.09
70534;SHT31;58088;51.186;17.130;2023-03-03T22:48:13;2.48;76.22
70534;SHT31;58088;51.186;17.130;2023-03-03T22:50:39;2.51;76.21
70534;SHT31;58088;51.186;17.130;2023-03-03T22:53:07;2.51;76.20
70534;SHT31;58088;51.186;17.130;2023-03-03T22:55:34;2.51;76.21
70534;SHT31;58088;51.186;17.130;2023-03-03T22:58:02;2.48;76.20
70534;SHT31;58088;51.186;17.130;2023-03-03T23:00:29;2.48;76.20
70534;SHT31;58088;51.186;17.130;2023-03-03T23:03:05;2.49;76.28
70534;SHT31;58088;51.186;17.130;2023-03-03T23:05:34;2.50;76.23
70534;SHT31;58088;51.186;17.130;2023-03-03T23:08:03;2.49;76.20
70534;SHT31;58088;51.186;17.130;2023-03-03T23:10:32;2.48;76.18
70534;SHT31;58088;51.186;17.130;2023-03-03T23:12:59;2.50;76.19
70534;SHT31;58088;51.186;17.130;2023-03-03T23:15:25;2.49;76.21
70534;SHT31;58088;51.186;17.130;2023-03-03T23:17:52;2.50;76.19
70534;SHT31;58088;51.186;17.130;2023-03-03T23:20:20;2.48;76.14
70534;SHT31;58088;51.186;17.130;2023-03-03T23:22:50;2.46;76.20
70534;SHT31;58088;51.186;17.130;2023-03-03T23:25:17;2.46;76.20
70534;SHT31;58088;51.186;17.130;2023-03-03T23:27:44;2.45;76.19
70534;SHT31;58088;51.186;17.130;2023-03-03T23:30:12;2.47;76.21
70534;SHT31;58088;51.186;17.130;2023-03-03T23:32:40;2.48;76.19
70534;SHT31;58088;51.186;17.130;2023-03-03T23:35:07;2.47;76.20
70534;SHT31;58088;51.186;17.130;2023-03-03T23:37:34;2.44;76.29